createdAt,value
2019-02-12T00:02:30.094Z,2.73
2019-02-12T00:05:00.445Z,2.40
2019-02-12T00:07:30.889Z,3.20
2019-02-12T00:10:01.425Z,2.30
2019-02-12T00:12:31.911Z,2.23
2019-02-12T00:15:02.336Z,2.37
2019-02-12T00:17:32.791Z,2.23
2019-02-12T00:20:03.729Z,3.20
2019-02-12T00:22:34.559Z,2.87
2019-02-12T00:25:04.929Z,2.47
2019-02-12T00:27:35.361Z,1.97
2019-02-12T00:30:06.114Z,2.07
2019-02-12T00:32:37.304Z,3.13
2019-02-12T00:35:07.989Z,2.10
2019-02-12T00:37:38.518Z,2.30
2019-02-12T00:40:09.203Z,2.13
2019-02-12T00:42:39.645Z,2.33
2019-02-12T00:45:10.276Z,2.10
2019-02-12T00:47:40.638Z,2.83
2019-02-12T00:50:11.197Z,2.70
2019-02-12T00:52:41.503Z,2.47
2019-02-12T00:55:11.851Z,2.93
2019-02-12T00:57:42.540Z,2.43
2019-02-12T01:00:13.869Z,2.50
2019-02-12T01:02:44.467Z,2.20
2019-02-12T01:05:15.049Z,2.30
2019-02-12T01:07:45.578Z,2.50
2019-02-12T01:10:15.894Z,2.40
2019-02-12T01:12:46.218Z,2.30
2019-02-12T01:15:16.619Z,2.37
2019-02-12T01:17:46.963Z,2.10
2019-02-12T01:20:17.451Z,2.37
2019-02-12T01:22:47.786Z,2.50
2019-02-12T01:25:18.159Z,1.80
2019-02-12T01:27:49.247Z,2.80
2019-02-12T01:30:20.089Z,2.07
2019-02-12T01:32:50.452Z,2.50
2019-02-12T01:35:20.858Z,2.43
2019-02-12T01:37:51.148Z,2.60
2019-02-12T01:40:21.827Z,1.93
2019-02-12T01:42:52.202Z,2.20
2019-02-12T01:45:22.650Z,2.60
2019-02-12T01:47:52.948Z,2.17
2019-02-12T01:50:23.804Z,2.10
2019-02-12T01:52:54.210Z,2.10
2019-02-12T01:55:24.515Z,2.03
2019-02-12T01:57:55.112Z,2.00
2019-02-12T02:00:25.961Z,1.83
2019-02-12T02:02:56.366Z,2.33
2019-02-12T02:05:27.532Z,1.90
2019-02-12T02:07:57.900Z,2.40
2019-02-12T02:10:28.346Z,2.13
2019-02-12T02:12:58.728Z,2.03
2019-02-12T02:15:29.238Z,2.10
2019-02-12T02:17:59.610Z,2.53
2019-02-12T02:20:30.319Z,2.43
2019-02-12T02:23:00.708Z,2.00
2019-02-12T02:25:31.087Z,1.87
2019-02-12T02:28:01.925Z,1.80
2019-02-12T02:30:32.444Z,1.87
2019-02-12T02:33:02.942Z,2.00
2019-02-12T02:35:33.334Z,2.00
2019-02-12T02:38:03.671Z,2.03
2019-02-12T02:40:34.051Z,2.50
2019-02-12T02:43:05.933Z,1.87
2019-02-12T02:45:36.379Z,1.97
2019-02-12T02:48:06.903Z,2.03
2019-02-12T02:50:37.669Z,2.00
2019-02-12T02:53:08.131Z,1.80
2019-02-12T02:55:38.590Z,1.60
2019-02-12T02:58:09.005Z,1.90
2019-02-12T03:00:39.380Z,1.80
2019-02-12T03:03:09.705Z,2.63
2019-02-12T03:05:40.083Z,1.60
2019-02-12T03:08:10.737Z,1.70
2019-02-12T03:10:42.374Z,1.80
2019-02-12T03:13:13.190Z,1.90
2019-02-12T03:15:43.810Z,2.00
2019-02-12T03:18:14.223Z,1.40
2019-02-12T03:20:45.636Z,2.10
2019-02-12T03:23:17.281Z,1.53
2019-02-12T03:25:47.811Z,1.60
2019-02-12T03:28:18.544Z,1.60
2019-02-12T03:30:48.900Z,2.10
2019-02-12T03:33:19.287Z,1.83
2019-02-12T03:35:50.139Z,1.80
2019-02-12T03:38:20.594Z,2.50
2019-02-12T03:40:50.990Z,2.00
2019-02-12T03:43:21.909Z,2.10
2019-02-12T03:45:52.313Z,1.77
2019-02-12T03:48:22.835Z,2.00
2019-02-12T03:50:53.639Z,1.90
2019-02-12T03:53:24.578Z,2.23
2019-02-12T03:55:55.025Z,2.10
2019-02-12T03:58:25.452Z,1.90
2019-02-12T04:00:55.861Z,2.20
2019-02-12T04:03:26.696Z,1.90
2019-02-12T04:05:57.190Z,2.63
2019-02-12T04:08:27.673Z,2.10
2019-02-12T04:10:58.065Z,2.30
2019-02-12T04:13:32.563Z,2.60
2019-02-12T04:16:00.554Z,2.00
2019-02-12T04:18:30.921Z,2.00
2019-02-12T04:21:01.367Z,2.47
2019-02-12T04:23:31.807Z,2.07
2019-02-12T04:26:02.148Z,2.80
2019-02-12T04:28:37.284Z,2.10
2019-02-12T04:31:07.684Z,2.20
2019-02-12T04:33:38.043Z,2.60
2019-02-12T04:36:09.792Z,1.80
2019-02-12T04:38:40.509Z,2.13
2019-02-12T04:41:10.934Z,2.00
2019-02-12T04:43:41.592Z,2.00
2019-02-12T04:46:12.115Z,2.07
2019-02-12T04:48:42.528Z,2.00
2019-02-12T04:51:12.909Z,1.87
2019-02-12T04:53:43.206Z,1.80
2019-02-12T04:56:13.585Z,1.83
2019-02-12T04:58:44.087Z,2.07
2019-02-12T05:01:14.907Z,1.47
2019-02-12T05:03:45.324Z,2.47
2019-02-12T05:06:15.756Z,2.30
2019-02-12T05:09:17.554Z,1.73
2019-02-12T05:11:59.448Z,2.00
2019-02-12T05:14:30.198Z,1.80
2019-02-12T05:17:00.525Z,1.70
2019-02-12T05:19:30.968Z,2.00
2019-02-12T05:22:01.371Z,1.70
2019-02-12T05:24:31.776Z,1.70
2019-02-12T05:27:02.446Z,1.80
2019-02-12T05:29:36.917Z,1.90
2019-02-12T05:32:07.284Z,2.40
2019-02-12T05:34:38.090Z,1.70
2019-02-12T05:37:08.497Z,2.30
2019-02-12T05:39:38.865Z,2.00
2019-02-12T05:42:09.733Z,2.77
2019-02-12T05:44:40.525Z,2.30
2019-02-12T05:47:10.936Z,2.20
2019-02-12T05:49:41.234Z,2.33
2019-02-12T05:52:11.568Z,2.57
2019-02-12T05:54:42.027Z,1.80
2019-02-12T05:57:12.629Z,1.90
2019-02-12T05:59:43.130Z,2.87
2019-02-12T06:02:13.624Z,2.40
2019-02-12T06:04:43.928Z,2.83
2019-02-12T06:07:14.395Z,2.30
2019-02-12T06:09:44.765Z,2.40
2019-02-12T06:12:15.125Z,3.20
2019-02-12T06:14:45.862Z,2.40
2019-02-12T06:17:16.225Z,2.70
2019-02-12T06:19:46.736Z,2.80
2019-02-12T06:22:17.115Z,2.37
2019-02-12T06:24:47.621Z,3.40
2019-02-12T06:27:18.125Z,3.33
2019-02-12T06:29:49.848Z,2.93
2019-02-12T06:32:20.285Z,2.70
2019-02-12T06:34:50.707Z,11.07
2019-02-12T06:37:21.127Z,3.60
2019-02-12T06:39:51.513Z,9.40
2019-02-12T06:42:21.926Z,3.60
2019-02-12T06:44:52.481Z,2.90
2019-02-12T06:47:25.154Z,4.00
2019-02-12T06:49:55.515Z,2.80
2019-02-12T06:52:25.999Z,5.43
2019-02-12T06:54:56.556Z,3.90
2019-02-12T06:57:28.250Z,4.27
2019-02-12T06:59:58.734Z,4.00
2019-02-12T07:03:03.626Z,4.30
2019-02-12T07:05:33.995Z,3.90
2019-02-12T07:08:32.483Z,4.03
2019-02-12T07:11:08.682Z,4.57
2019-02-12T07:13:44.750Z,4.23
2019-02-12T07:16:58.489Z,3.23
2019-02-12T07:20:11.342Z,5.07
2019-02-12T07:33:55.263Z,4.03
2019-02-12T07:37:01.392Z,3.37
2019-02-12T07:40:00.386Z,4.13
2019-02-12T07:43:06.081Z,5.77
2019-02-12T07:45:55.091Z,4.40
2019-02-12T07:48:50.862Z,2.60
2019-02-12T07:51:41.976Z,3.17
2019-02-12T07:54:30.774Z,3.93
2019-02-12T07:57:53.201Z,4.37
2019-02-12T08:00:59.285Z,4.27
2019-02-12T08:03:54.545Z,4.20
2019-02-12T08:07:26.122Z,4.70
2019-02-12T08:10:36.840Z,3.77
2019-02-12T08:13:43.219Z,3.80
2019-02-12T08:16:57.676Z,3.03
2019-02-12T08:19:55.385Z,3.47
2019-02-12T08:23:01.987Z,2.60
2019-02-12T08:26:14.447Z,3.70
2019-02-12T08:29:22.400Z,2.90
2019-02-12T08:32:29.903Z,4.13
2019-02-12T08:35:19.133Z,5.37
2019-02-12T08:38:41.556Z,7.27
2019-02-12T08:41:29.865Z,4.83
2019-02-12T08:44:16.276Z,4.30
2019-02-12T08:47:51.100Z,5.00
2019-02-12T08:50:59.441Z,4.37
2019-02-12T08:54:15.888Z,4.60
2019-02-12T08:57:22.697Z,9.03
2019-02-12T09:00:36.593Z,5.73
2019-02-12T09:03:37.449Z,6.53
2019-02-12T09:07:07.077Z,5.80
2019-02-12T09:10:25.958Z,3.70
2019-02-12T09:13:27.528Z,3.00
2019-02-12T09:16:55.396Z,2.50
2019-02-12T09:20:09.182Z,2.23
2019-02-12T09:23:18.042Z,2.00
2019-02-12T09:26:19.010Z,2.50
2019-02-12T09:29:36.060Z,2.50
2019-02-12T09:32:48.860Z,2.13
2019-02-12T09:35:39.963Z,2.97
2019-02-12T09:38:44.878Z,2.47
2019-02-12T09:41:29.083Z,2.20
2019-02-12T09:44:28.810Z,2.80
2019-02-12T09:47:34.694Z,3.43
2019-02-12T09:50:31.661Z,2.83
2019-02-12T09:53:32.632Z,2.80
2019-02-12T09:56:31.217Z,2.37
2019-02-12T09:59:26.696Z,2.17
2019-02-12T10:02:26.584Z,2.63
2019-02-12T10:05:51.386Z,2.70
2019-02-12T10:09:09.226Z,3.03
2019-02-12T10:12:22.080Z,3.13
2019-02-12T10:15:44.733Z,2.80
2019-02-12T10:19:07.442Z,1.97
2019-02-12T10:22:03.085Z,2.80
2019-02-12T10:25:00.106Z,3.13
2019-02-12T10:28:21.217Z,2.87
2019-02-12T10:31:22.317Z,2.60
2019-02-12T10:33:52.677Z,2.00
2019-02-12T10:36:23.606Z,2.20
2019-02-12T10:38:53.910Z,2.87
2019-02-12T10:41:24.248Z,2.47
2019-02-12T10:43:54.676Z,2.80
2019-02-12T10:46:25.052Z,2.20
2019-02-12T10:48:55.372Z,3.60
2019-02-12T10:51:25.821Z,2.93
2019-02-12T10:53:56.161Z,2.90
2019-02-12T10:56:26.565Z,2.90
2019-02-12T10:58:57.234Z,3.50
2019-02-12T11:01:27.650Z,2.53
2019-02-12T11:03:57.993Z,2.50
2019-02-12T11:06:28.398Z,2.20
2019-02-12T11:08:59.190Z,2.80
2019-02-12T11:11:29.513Z,2.53
2019-02-12T11:14:00.125Z,3.20
2019-02-12T11:16:34.684Z,3.03
2019-02-12T11:19:05.707Z,2.60
2019-02-12T11:21:36.469Z,2.20
2019-02-12T11:24:06.938Z,3.10
2019-02-12T11:26:37.363Z,2.83
2019-02-12T11:29:07.865Z,3.30
2019-02-12T11:31:38.241Z,3.60
2019-02-12T11:34:09.073Z,3.00
2019-02-12T11:36:39.515Z,3.23
2019-02-12T11:39:09.814Z,4.27
2019-02-12T11:41:48.179Z,3.50
2019-02-12T11:44:18.147Z,4.47
2019-02-12T11:46:48.650Z,4.20
2019-02-12T11:49:19.064Z,4.00
2019-02-12T11:51:50.166Z,2.93
2019-02-12T11:54:21.060Z,2.87
2019-02-12T11:56:51.491Z,3.43
2019-02-12T11:59:21.996Z,3.67
2019-02-12T12:01:52.455Z,3.70
2019-02-12T12:04:22.774Z,4.27
2019-02-12T12:06:53.240Z,3.73
2019-02-12T12:09:26.059Z,4.20
2019-02-12T12:11:56.587Z,5.53
2019-02-12T12:14:26.979Z,4.60
2019-02-12T12:16:57.382Z,4.57
2019-02-12T12:19:28.300Z,4.83
2019-02-12T12:21:58.788Z,3.80
2019-02-12T12:24:29.666Z,5.67
2019-02-12T12:27:01.870Z,4.90
2019-02-12T12:29:32.492Z,4.60
2019-02-12T12:32:02.835Z,3.03
2019-02-12T12:34:33.262Z,3.20
2019-02-12T12:37:03.644Z,3.33
2019-02-12T12:39:34.113Z,2.20
2019-02-12T12:42:04.512Z,2.33
2019-02-12T12:44:34.893Z,2.30
2019-02-12T12:47:05.445Z,2.40
2019-02-12T12:49:37.776Z,3.00
2019-02-12T12:52:08.150Z,2.47
2019-02-12T12:54:38.498Z,3.20
2019-02-12T12:57:08.907Z,2.13
2019-02-12T13:00:10.891Z,2.70
2019-02-12T13:02:41.330Z,2.13
2019-02-12T13:05:11.839Z,2.63
2019-02-12T13:07:42.207Z,2.83
2019-02-12T13:10:14.422Z,1.73
2019-02-12T13:12:46.814Z,2.50
2019-02-12T13:15:18.468Z,2.20
2019-02-12T13:17:55.009Z,2.50
2019-02-12T13:20:25.600Z,2.70
2019-02-12T13:22:56.001Z,2.63
2019-02-12T13:25:26.705Z,2.20
2019-02-12T13:27:59.252Z,2.40
2019-02-12T13:30:29.651Z,2.80
2019-02-12T13:33:00.011Z,2.10
2019-02-12T13:35:30.651Z,1.97
2019-02-12T13:38:01.123Z,2.37
2019-02-12T13:40:31.489Z,2.13
2019-02-12T13:43:01.959Z,2.20
2019-02-12T13:45:32.933Z,2.87
2019-02-12T13:48:03.316Z,2.30
2019-02-12T13:50:34.613Z,2.50
2019-02-12T13:53:05.014Z,1.97
2019-02-12T13:55:35.415Z,2.63
2019-02-12T13:58:05.729Z,2.30
2019-02-12T14:00:36.746Z,1.67
2019-02-12T14:03:07.529Z,2.10
2019-02-12T14:05:37.855Z,2.20
2019-02-12T14:08:08.262Z,1.90
2019-02-12T14:10:38.669Z,2.73
2019-02-12T14:13:09.410Z,2.40
2019-02-12T14:15:41.210Z,2.83
2019-02-12T14:18:18.798Z,2.07
2019-02-12T14:20:49.183Z,2.37
2019-02-12T14:23:19.546Z,1.97
2019-02-12T14:25:49.978Z,2.20
2019-02-12T14:28:20.267Z,1.90
2019-02-12T14:30:50.781Z,2.20
2019-02-12T14:33:21.429Z,2.10
2019-02-12T14:35:52.177Z,2.47
2019-02-12T14:38:22.575Z,1.87
2019-02-12T14:40:53.042Z,2.43
2019-02-12T14:43:23.433Z,2.70
2019-02-12T14:45:53.877Z,2.50
2019-02-12T14:48:24.276Z,1.73
2019-02-12T14:50:54.720Z,2.87
2019-02-12T14:53:25.823Z,3.40
2019-02-12T14:55:56.326Z,2.77
2019-02-12T14:58:34.982Z,2.10
2019-02-12T15:01:06.454Z,3.87
2019-02-12T15:03:37.370Z,2.80
2019-02-12T15:06:10.029Z,2.77
2019-02-12T15:08:40.485Z,2.87
2019-02-12T15:11:11.357Z,3.53
2019-02-12T15:13:41.826Z,3.57
2019-02-12T15:16:12.148Z,3.00
2019-02-12T15:18:42.541Z,3.57
2019-02-12T15:21:15.138Z,3.10
2019-02-12T15:23:47.133Z,2.27
2019-02-12T15:26:19.402Z,2.90
2019-02-12T15:28:51.075Z,2.50
2019-02-12T15:31:21.647Z,2.43
2019-02-12T15:33:52.054Z,3.00
2019-02-12T15:36:24.110Z,2.53
2019-02-12T15:38:57.215Z,2.47
2019-02-12T15:41:27.949Z,1.90
2019-02-12T15:43:58.744Z,8.27
2019-02-12T15:46:29.715Z,4.83
2019-02-12T15:49:00.151Z,4.00
2019-02-12T15:51:30.581Z,4.73
2019-02-12T15:54:01.479Z,3.40
2019-02-12T15:56:32.922Z,2.67
2019-02-12T15:59:03.274Z,3.37
2019-02-12T16:01:33.674Z,2.70
2019-02-12T16:04:04.162Z,3.17
2019-02-12T16:06:34.516Z,3.03
2019-02-12T16:09:05.941Z,2.50
2019-02-12T16:11:36.331Z,3.10
2019-02-12T16:14:10.353Z,2.77
2019-02-12T16:16:40.827Z,3.20
2019-02-12T16:19:11.193Z,2.70
2019-02-12T16:21:41.794Z,3.10
2019-02-12T16:24:12.362Z,3.47
2019-02-12T16:26:42.925Z,3.40
2019-02-12T16:29:13.433Z,2.43
2019-02-12T16:31:45.571Z,3.20
2019-02-12T16:34:16.858Z,2.60
2019-02-12T16:36:47.270Z,3.03
2019-02-12T16:39:21.960Z,3.33
2019-02-12T16:41:53.084Z,3.50
2019-02-12T16:44:24.067Z,2.30
2019-02-12T16:46:54.454Z,3.63
2019-02-12T16:49:30.315Z,3.30
2019-02-12T16:52:00.960Z,3.13
2019-02-12T16:54:31.429Z,3.03
2019-02-12T16:57:02.110Z,3.90
2019-02-12T16:59:33.038Z,4.47
2019-02-12T17:02:04.867Z,16.70
2019-02-12T17:04:35.632Z,5.17
2019-02-12T17:07:08.140Z,5.20
2019-02-12T17:09:38.513Z,4.57
2019-02-12T17:12:11.886Z,3.90
2019-02-12T17:14:43.460Z,4.77
2019-02-12T17:17:17.301Z,4.53
2019-02-12T17:19:47.740Z,5.93
2019-02-12T17:22:18.194Z,12.77
2019-02-12T17:24:50.339Z,5.07
2019-02-12T17:27:20.863Z,5.00
2019-02-12T17:29:55.963Z,3.80
2019-02-12T17:32:26.464Z,14.33
2019-02-12T17:35:01.502Z,4.13
2019-02-12T17:37:29.482Z,3.67
2019-02-12T17:39:59.801Z,4.13
2019-02-12T17:42:30.234Z,4.00
2019-02-12T17:45:00.634Z,4.47
2019-02-12T17:47:30.904Z,3.73
2019-02-12T17:50:01.289Z,4.00
2019-02-12T17:52:31.693Z,6.23
2019-02-12T17:55:02.138Z,3.67
2019-02-12T17:57:35.033Z,9.93
2019-02-12T18:00:09.873Z,4.83
2019-02-12T18:02:41.658Z,4.07
2019-02-12T18:05:12.514Z,5.17
2019-02-12T18:07:43.296Z,3.47
2019-02-12T18:10:13.939Z,4.30
2019-02-12T18:12:44.429Z,4.70
2019-02-12T18:15:15.176Z,15.60
2019-02-12T18:17:46.040Z,4.13
2019-02-12T18:20:16.590Z,5.80
2019-02-12T18:22:47.852Z,11.30
2019-02-12T18:25:18.514Z,7.60
2019-02-12T18:27:49.882Z,4.50
2019-02-12T18:30:24.604Z,5.43
2019-02-12T18:32:57.347Z,4.47
2019-02-12T18:35:30.665Z,13.50
2019-02-12T18:38:01.382Z,9.57
2019-02-12T18:40:32.155Z,7.90
2019-02-12T18:43:02.671Z,6.20
2019-02-12T18:45:33.294Z,28.30
2019-02-12T18:48:04.000Z,7.57
2019-02-12T18:50:34.511Z,22.23
2019-02-12T18:53:05.143Z,29.20
2019-02-12T18:55:35.703Z,13.77
2019-02-12T18:58:06.701Z,7.50
2019-02-12T19:00:37.363Z,9.90
2019-02-12T19:03:08.041Z,7.60
2019-02-12T19:05:38.723Z,7.53
2019-02-12T19:08:09.647Z,6.20
2019-02-12T19:10:40.328Z,7.47
2019-02-12T19:13:11.100Z,7.60
2019-02-12T19:15:41.973Z,7.83
2019-02-12T19:18:15.277Z,9.17
2019-02-12T19:20:47.860Z,9.50
2019-02-12T19:23:18.766Z,8.17
2019-02-12T19:25:49.458Z,8.27
2019-02-12T19:28:20.214Z,7.23
2019-02-12T19:30:51.823Z,7.80
2019-02-12T19:33:23.233Z,6.40
2019-02-12T19:35:55.578Z,7.40
2019-02-12T19:38:27.414Z,8.33
2019-02-12T19:40:58.096Z,11.67
2019-02-12T19:43:29.249Z,8.93
2019-02-12T19:46:02.930Z,8.60
2019-02-12T19:48:33.703Z,11.80
2019-02-12T19:51:04.651Z,9.80
2019-02-12T19:53:35.696Z,8.80
2019-02-12T19:56:06.559Z,14.67
2019-02-12T19:58:39.065Z,8.90
2019-02-12T20:01:09.849Z,10.03
2019-02-12T20:03:40.861Z,10.10
2019-02-12T20:06:15.311Z,14.60
2019-02-12T20:08:47.101Z,7.73
2019-02-12T20:11:19.340Z,6.37
2019-02-12T20:13:50.442Z,8.07
2019-02-12T20:16:25.671Z,7.63
2019-02-12T20:19:00.525Z,7.30
2019-02-12T20:21:37.295Z,5.60
2019-02-12T20:24:14.818Z,5.10
2019-02-12T20:26:46.713Z,4.63
2019-02-12T20:29:18.577Z,4.87
2019-02-12T20:31:53.877Z,5.03
2019-02-12T20:34:27.123Z,4.73
2019-02-12T20:36:59.534Z,5.07
2019-02-12T20:39:31.834Z,5.60
2019-02-12T20:42:07.157Z,5.90
2019-02-12T20:44:39.184Z,4.83
2019-02-12T20:47:29.585Z,5.10
2019-02-12T20:50:03.901Z,5.37
2019-02-12T20:52:39.341Z,6.23
2019-02-12T20:55:12.663Z,5.90
2019-02-12T20:57:43.294Z,5.33
2019-02-12T21:00:18.571Z,6.43
2019-02-12T21:02:49.236Z,5.63
2019-02-12T21:05:20.021Z,6.37
2019-02-12T21:07:51.036Z,6.17
2019-02-12T21:10:21.943Z,5.43
2019-02-12T21:12:53.356Z,6.70
2019-02-12T21:15:27.165Z,6.07
2019-02-12T21:17:57.619Z,6.30
2019-02-12T21:20:28.092Z,5.40
2019-02-12T21:22:58.437Z,5.87
2019-02-12T21:25:28.896Z,5.67
2019-02-12T21:27:59.536Z,5.20
2019-02-12T21:30:29.992Z,5.87
2019-02-12T21:33:00.986Z,5.90
2019-02-12T21:35:31.936Z,5.53
2019-02-12T21:38:05.108Z,5.60
2019-02-12T21:40:35.411Z,6.43
2019-02-12T21:43:07.201Z,5.77
2019-02-12T21:45:37.657Z,6.33
2019-02-12T21:48:08.035Z,5.93
2019-02-12T21:50:42.980Z,7.23
2019-02-12T21:53:13.421Z,10.10
2019-02-12T21:55:45.458Z,7.30
2019-02-12T21:58:16.050Z,7.50
2019-02-12T22:00:46.970Z,5.50
2019-02-12T22:03:17.285Z,8.57
2019-02-12T22:05:47.644Z,9.30
2019-02-12T22:08:19.205Z,8.57
2019-02-12T22:10:49.953Z,7.80
2019-02-12T22:13:20.431Z,7.47
2019-02-12T22:15:50.933Z,6.53
2019-02-12T22:18:21.297Z,8.00
2019-02-12T22:20:52.216Z,7.30
2019-02-12T22:23:24.512Z,7.47
2019-02-12T22:25:54.925Z,7.90
2019-02-12T22:28:25.401Z,7.43
2019-02-12T22:30:55.840Z,7.53
2019-02-12T22:33:26.274Z,6.57
2019-02-12T22:35:56.641Z,5.93
2019-02-12T22:38:27.121Z,6.30
2019-02-12T22:40:59.298Z,6.73
2019-02-12T22:43:31.236Z,6.17
2019-02-12T22:46:01.717Z,6.77
2019-02-12T22:48:32.102Z,6.43
2019-02-12T22:51:02.484Z,7.20
2019-02-12T22:53:32.986Z,6.90
2019-02-12T22:56:04.391Z,7.87
2019-02-12T22:58:35.177Z,7.67
2019-02-12T23:01:09.682Z,7.57
2019-02-12T23:03:40.078Z,6.43
2019-02-12T23:06:12.298Z,7.40
2019-02-12T23:08:44.525Z,6.70
2019-02-12T23:11:15.378Z,6.73
2019-02-12T23:13:45.759Z,7.13
2019-02-12T23:16:17.269Z,8.17
2019-02-12T23:18:47.554Z,9.00
2019-02-12T23:21:17.974Z,7.17
2019-02-12T23:23:48.340Z,7.70
2019-02-12T23:26:18.829Z,8.47
2019-02-12T23:28:49.543Z,7.17
2019-02-12T23:31:20.055Z,9.10
2019-02-12T23:33:50.613Z,8.93
2019-02-12T23:36:22.692Z,9.43
2019-02-12T23:38:53.034Z,9.63
2019-02-12T23:41:23.384Z,9.80
2019-02-12T23:43:53.868Z,9.57
2019-02-12T23:46:29.208Z,8.93
2019-02-12T23:48:59.536Z,11.50
2019-02-12T23:51:30.067Z,10.93
2019-02-12T23:54:00.429Z,10.73
2019-02-12T23:56:30.895Z,11.90
2019-02-12T23:59:01.368Z,10.73
